Terminal Aerodrome Forecast
Issued by NWS Charleston, WV

Home | Current Version | Previous Version | Text Only | Print | Product List | Glossary On
Versions: 1 2 3 4 5 6 7 8 9 10 11 12 13 14 15 16 17 18 19 20 21 22 23 24 25 26
081
FTUS41 KRLX 240859 AAA
TAFPKB
TAF AMD
KPKB 240859Z 2409/2506 00000KT 6SM -DZ OVC015
     FM241200 28007KT P6SM OVC012
     FM241700 29008KT P6SM OVC008
     FM250200 26006KT P6SM BKN018
     FM250400 25005KT P6SM BKN026=

USA.gov is the U.S. government's official web portal to all federal, state and local government web resources and services.